createdAt,value
2022-09-24T00:01:36.677Z,5.80
2022-09-24T00:06:59.159Z,6.27
2022-09-24T00:12:21.892Z,7.03
2022-09-24T00:17:44.288Z,7.30
2022-09-24T00:23:07.830Z,6.73
2022-09-24T00:28:31.180Z,6.20
2022-09-24T00:33:54.391Z,5.73
2022-09-24T00:39:16.975Z,5.50
2022-09-24T00:44:45.168Z,6.07
2022-09-24T00:50:10.419Z,6.00
2022-09-24T00:55:35.450Z,6.00
2022-09-24T01:01:05.168Z,5.70
2022-09-24T01:06:28.358Z,5.57
2022-09-24T01:12:09.335Z,5.13
2022-09-24T01:17:31.513Z,5.30
2022-09-24T01:23:38.199Z,4.50
2022-09-24T01:29:12.587Z,4.57
2022-09-24T01:34:44.419Z,5.10
2022-09-24T01:40:09.424Z,5.77
2022-09-24T01:45:33.243Z,4.73
2022-09-24T01:51:05.537Z,4.97
2022-09-24T01:56:34.699Z,4.97
2022-09-24T02:02:14.218Z,5.27
2022-09-24T02:07:45.304Z,5.40
2022-09-24T02:13:13.072Z,4.87
2022-09-24T02:18:42.831Z,5.27
2022-09-24T02:24:11.816Z,5.20
2022-09-24T02:29:34.151Z,4.97
2022-09-24T02:35:02.026Z,5.23
2022-09-24T02:40:24.650Z,4.90
2022-09-24T02:45:47.276Z,4.43
2022-09-24T02:51:09.651Z,4.90
2022-09-24T02:56:32.504Z,4.70
2022-09-24T03:01:54.781Z,5.23
2022-09-24T03:07:17.442Z,4.90
2022-09-24T03:12:42.251Z,4.83
2022-09-24T03:18:05.047Z,4.80
2022-09-24T03:23:28.172Z,5.23
2022-09-24T03:28:50.580Z,5.67
2022-09-24T03:34:13.199Z,5.33
2022-09-24T03:39:35.285Z,5.27
2022-09-24T03:44:58.905Z,5.50
2022-09-24T03:50:21.199Z,5.47
2022-09-24T03:55:48.566Z,4.90
2022-09-24T04:01:13.089Z,5.77
2022-09-24T04:06:35.342Z,5.60
2022-09-24T04:11:59.189Z,5.93
2022-09-24T04:17:21.338Z,5.50
2022-09-24T04:22:43.564Z,6.07
2022-09-24T04:28:08.037Z,5.23
2022-09-24T04:33:30.513Z,5.73
2022-09-24T04:38:53.026Z,5.03
2022-09-24T04:44:15.613Z,5.40
2022-09-24T04:49:37.778Z,7.67
2022-09-24T04:55:01.042Z,6.80
2022-09-24T05:00:24.180Z,6.17
2022-09-24T05:05:46.580Z,6.57
2022-09-24T05:11:09.388Z,6.30
2022-09-24T05:16:31.849Z,7.00
2022-09-24T05:21:54.262Z,7.67
2022-09-24T05:27:17.018Z,7.33
2022-09-24T05:32:39.363Z,7.10
2022-09-24T05:38:01.819Z,6.03
2022-09-24T05:43:27.842Z,6.77
2022-09-24T05:48:50.486Z,6.57
2022-09-24T05:54:12.977Z,6.70
2022-09-24T05:59:35.509Z,6.87
2022-09-24T06:04:57.713Z,8.10
2022-09-24T06:10:19.897Z,7.80
2022-09-24T06:15:44.736Z,8.00
2022-09-24T06:21:13.454Z,7.50
2022-09-24T06:26:36.378Z,7.03
2022-09-24T06:32:00.124Z,6.93
2022-09-24T06:37:22.656Z,7.20
2022-09-24T06:42:45.348Z,7.17
2022-09-24T06:48:07.779Z,6.57
2022-09-24T06:53:30.134Z,7.07
2022-09-24T06:58:52.573Z,6.93
2022-09-24T07:04:14.952Z,6.73
2022-09-24T07:09:40.777Z,6.97
2022-09-24T07:15:04.120Z,7.00
2022-09-24T07:20:29.161Z,6.70
2022-09-24T07:25:56.182Z,7.23
2022-09-24T07:31:18.775Z,6.47
2022-09-24T07:36:41.782Z,6.20
2022-09-24T07:42:05.565Z,5.90
2022-09-24T07:47:27.808Z,5.90
2022-09-24T07:52:51.322Z,5.50
2022-09-24T07:58:14.759Z,5.50
2022-09-24T08:03:37.218Z,5.00
2022-09-24T08:08:59.934Z,5.73
2022-09-24T08:14:22.194Z,5.43
2022-09-24T08:19:46.935Z,5.37
2022-09-24T08:25:09.849Z,5.20
2022-09-24T08:30:33.858Z,5.30
2022-09-24T08:35:59.452Z,5.73
2022-09-24T08:41:31.127Z,5.83
2022-09-24T08:47:22.066Z,6.23
2022-09-24T08:53:13.160Z,5.53
2022-09-24T08:58:44.893Z,5.90
2022-09-24T09:04:25.820Z,5.37
2022-09-24T09:10:04.077Z,5.77
2022-09-24T09:15:33.524Z,5.47
2022-09-24T09:21:02.687Z,5.87
2022-09-24T09:26:25.531Z,5.40
2022-09-24T09:32:21.772Z,5.63
2022-09-24T09:37:44.241Z,5.40
2022-09-24T09:43:11.846Z,5.27
2022-09-24T09:48:56.684Z,5.53
2022-09-24T09:54:18.808Z,4.53
2022-09-24T09:59:41.093Z,4.90
2022-09-24T10:05:05.488Z,5.20
2022-09-24T10:10:28.984Z,4.10
2022-09-24T10:15:52.647Z,4.37
2022-09-24T10:21:35.429Z,5.40
2022-09-24T10:26:58.501Z,5.33
2022-09-24T10:32:24.064Z,5.83
2022-09-24T10:37:58.049Z,4.97
2022-09-24T10:43:22.376Z,4.80
2022-09-24T10:48:50.424Z,5.07
2022-09-24T10:54:26.207Z,5.00
2022-09-24T11:00:21.086Z,4.83
2022-09-24T11:06:13.886Z,4.60
2022-09-24T11:11:55.565Z,4.60
2022-09-24T11:17:33.582Z,4.67
2022-09-24T11:23:33.301Z,4.70
2022-09-24T11:29:01.752Z,4.50
2022-09-24T11:34:43.234Z,4.50
2022-09-24T11:40:24.003Z,4.07
2022-09-24T11:46:10.737Z,4.87
2022-09-24T11:51:54.701Z,4.60
2022-09-24T11:57:37.528Z,4.53
2022-09-24T12:03:06.129Z,4.47
2022-09-24T12:08:50.661Z,4.40
2022-09-24T12:14:19.199Z,4.57
2022-09-24T12:20:09.000Z,4.73
2022-09-24T12:25:40.525Z,4.67
2022-09-24T12:31:33.104Z,5.17
2022-09-24T12:37:04.187Z,4.37
2022-09-24T12:42:33.761Z,4.43
2022-09-24T12:48:00.104Z,5.70
2022-09-24T12:53:24.859Z,5.15
2022-09-24T12:58:49.504Z,4.70
2022-09-24T13:04:14.530Z,5.23
2022-09-24T13:09:40.399Z,4.70
2022-09-24T13:15:08.448Z,5.20
2022-09-24T13:20:32.786Z,5.33
2022-09-24T13:25:59.490Z,5.53
2022-09-24T13:31:21.835Z,5.73
2022-09-24T13:36:58.463Z,5.97
2022-09-24T13:42:42.868Z,5.20
2022-09-24T13:48:14.239Z,5.33
2022-09-24T13:53:50.430Z,4.97
2022-09-24T13:59:13.143Z,5.63
2022-09-24T14:04:35.807Z,5.87
2022-09-24T14:10:13.356Z,5.70
2022-09-24T14:15:36.467Z,5.43
2022-09-24T14:21:07.485Z,5.53
2022-09-24T14:26:46.569Z,5.53
2022-09-24T14:32:29.955Z,6.40
2022-09-24T14:37:58.100Z,5.63
2022-09-24T14:43:31.632Z,6.60
2022-09-24T14:49:16.857Z,6.13
2022-09-24T14:54:40.478Z,6.10
2022-09-24T15:00:18.840Z,6.50
2022-09-24T15:05:41.596Z,5.87
2022-09-24T15:11:05.670Z,6.13
2022-09-24T15:16:32.095Z,6.60
2022-09-24T15:21:58.184Z,6.13
2022-09-24T15:27:34.005Z,6.90
2022-09-24T15:32:56.419Z,7.93
2022-09-24T15:38:20.074Z,7.77
2022-09-24T15:43:42.542Z,9.73
2022-09-24T15:49:06.129Z,9.57
2022-09-24T15:54:29.053Z,11.17
2022-09-24T15:59:51.557Z,14.43
2022-09-24T16:05:15.006Z,15.60
2022-09-24T16:10:37.451Z,11.10
2022-09-24T16:16:04.586Z,11.93
2022-09-24T16:21:28.088Z,13.47
2022-09-24T16:26:50.887Z,12.83
2022-09-24T16:32:13.975Z,15.53
2022-09-24T16:37:36.539Z,15.07
2022-09-24T16:42:59.261Z,15.50
2022-09-24T16:48:21.812Z,15.00
2022-09-24T16:53:48.559Z,21.17
2022-09-24T16:59:11.909Z,23.90
2022-09-24T17:04:34.555Z,19.93
2022-09-24T17:10:16.283Z,20.30
2022-09-24T17:15:38.763Z,21.03
2022-09-24T17:21:11.239Z,17.43
2022-09-24T17:26:34.633Z,18.30
2022-09-24T17:31:57.253Z,18.80
2022-09-24T17:37:19.678Z,18.80
2022-09-24T17:42:45.877Z,18.37
2022-09-24T17:48:08.474Z,17.70
2022-09-24T17:53:32.900Z,18.77
2022-09-24T17:58:56.275Z,17.90
2022-09-24T18:04:20.643Z,18.53
2022-09-24T18:09:45.775Z,17.73
2022-09-24T18:15:08.387Z,16.77
2022-09-24T18:20:32.573Z,17.50
2022-09-24T18:25:56.433Z,16.80
2022-09-24T18:31:24.249Z,16.73
2022-09-24T18:36:47.065Z,16.37
2022-09-24T18:42:12.257Z,16.17
2022-09-24T18:47:38.351Z,14.47
2022-09-24T18:53:09.521Z,13.60
2022-09-24T18:58:32.953Z,12.67
2022-09-24T19:03:55.891Z,11.47
2022-09-24T19:09:21.375Z,10.80
2022-09-24T19:14:44.788Z,10.30
2022-09-24T19:20:08.792Z,10.20
2022-09-24T19:25:38.410Z,10.30
2022-09-24T19:31:03.364Z,10.93
2022-09-24T19:36:25.821Z,10.07
2022-09-24T19:41:52.321Z,9.83
2022-09-24T19:47:16.210Z,10.23
2022-09-24T19:52:39.189Z,9.10
2022-09-24T19:58:03.256Z,10.10
2022-09-24T20:09:16.826Z,9.60
2022-09-24T20:14:41.814Z,9.37
2022-09-24T20:20:07.262Z,8.50
2022-09-24T20:25:48.204Z,9.10
2022-09-24T20:31:17.717Z,8.23
2022-09-24T20:36:40.075Z,8.80
2022-09-24T20:42:02.347Z,8.30
2022-09-24T20:47:24.691Z,8.70
2022-09-24T20:52:47.544Z,8.77
2022-09-24T20:58:10.248Z,8.43
2022-09-24T21:03:49.930Z,7.37
2022-09-24T21:09:14.575Z,6.60
2022-09-24T21:14:37.095Z,7.27
2022-09-24T21:19:59.587Z,6.90
2022-09-24T21:25:52.363Z,6.37
2022-09-24T21:31:07.128Z,5.90
2022-09-24T21:36:42.877Z,6.83
2022-09-24T21:42:06.152Z,5.83
2022-09-24T21:47:28.364Z,6.43
2022-09-24T21:52:52.016Z,6.93
2022-09-24T21:58:14.952Z,6.50
2022-09-24T22:03:37.315Z,5.53
2022-09-24T22:09:06.221Z,5.43
2022-09-24T22:14:28.707Z,5.67
2022-09-24T22:19:50.822Z,5.40
2022-09-24T22:25:13.384Z,5.87
2022-09-24T22:30:35.833Z,5.40
2022-09-24T22:35:58.032Z,5.87
2022-09-24T22:41:20.335Z,5.43
2022-09-24T22:46:42.594Z,5.37
2022-09-24T22:52:04.886Z,5.30
2022-09-24T22:57:28.011Z,5.33
2022-09-24T23:02:50.481Z,4.70
2022-09-24T23:08:12.621Z,5.20
2022-09-24T23:13:35.607Z,5.00
2022-09-24T23:19:00.581Z,5.13
2022-09-24T23:24:24.057Z,5.27
2022-09-24T23:29:47.348Z,5.13
2022-09-24T23:35:09.531Z,5.27
2022-09-24T23:40:32.194Z,5.30
2022-09-24T23:45:55.237Z,5.63
2022-09-24T23:51:17.531Z,5.70
2022-09-24T23:56:39.739Z,5.63
